Time;durP1;ratioP1;P1;durP2;ratioP2;P2;SDS_P1;SDS_P2;PMS_P1;PMS_P2;Temp;Humidity;BMP_temperature;BMP_pressure;BME280_temperature;BME280_humidity;BME280_pressure;Samples;Min_cycle;Max_cycle;Signal;HPM_P1;HPM_P2
2022/09/22 00:00:24;;;;;;;10.67;5.07;;;;;;;7.64;100.00;100374.94;4185020;28;21189;-74
2022/09/22 00:02:54;;;;;;;7.27;4.47;;;;;;;7.64;100.00;100372.28;4175173;28;20248;-75
2022/09/22 00:05:22;;;;;;;8.67;4.83;;;;;;;7.60;100.00;100364.59;4187799;28;20281;-74
2022/09/22 00:07:49;;;;;;;8.17;4.83;;;;;;;7.56;100.00;100368.47;4177752;28;20237;-74
2022/09/22 00:10:17;;;;;;;7.37;4.03;;;;;;;7.53;100.00;100371.34;4191760;28;21389;-73
2022/09/22 00:12:46;;;;;;;9.50;4.50;;;;;;;7.44;100.00;100361.53;4192582;28;20234;-73
2022/09/22 00:15:12;;;;;;;15.07;4.70;;;;;;;7.36;100.00;100364.81;4193623;28;20233;-72
2022/09/22 00:17:39;;;;;;;8.20;4.40;;;;;;;7.34;100.00;100366.75;4191522;28;20344;-68
2022/09/22 00:20:06;;;;;;;11.67;4.77;;;;;;;7.33;100.00;100369.53;4186946;28;20475;-71
2022/09/22 00:22:32;;;;;;;8.37;4.77;;;;;;;7.29;100.00;100376.88;4190960;28;21354;-70
2022/09/22 00:24:59;;;;;;;12.03;5.00;;;;;;;7.18;100.00;100364.50;4197303;28;20228;-70
2022/09/22 00:27:25;;;;;;;11.20;5.20;;;;;;;7.24;100.00;100365.00;4196088;28;20355;-70
2022/09/22 00:29:52;;;;;;;8.23;4.77;;;;;;;7.24;100.00;100370.28;4185304;28;21660;-71
2022/09/22 00:32:18;;;;;;;13.00;5.40;;;;;;;7.25;100.00;100364.00;4193551;28;20232;-72
2022/09/22 00:34:45;;;;;;;10.57;4.77;;;;;;;7.23;100.00;100369.41;4195415;28;21215;-70
2022/09/22 00:37:11;;;;;;;12.80;5.53;;;;;;;7.23;100.00;100368.59;4198888;28;21138;-70
2022/09/22 00:39:38;;;;;;;10.77;5.47;;;;;;;7.23;100.00;100376.53;4197350;28;20324;-70
2022/09/22 00:42:04;;;;;;;13.10;5.80;;;;;;;7.21;100.00;100371.38;4191470;28;20236;-70
2022/09/22 00:44:37;;;;;;;11.43;6.27;;;;;;;7.24;100.00;100365.81;4210221;28;20616;-71
2022/09/22 00:47:28;;;;;;;12.40;5.40;;;;;;;7.18;100.00;100371.59;4195104;28;20260;-72
2022/09/22 00:49:59;;;;;;;12.97;5.37;;;;;;;7.24;100.00;100360.53;4195861;28;21216;-72
2022/09/22 00:52:35;;;;;;;10.43;5.33;;;;;;;7.23;100.00;100363.28;4180883;28;25787;-70
2022/09/22 00:55:18;;;;;;;8.80;4.90;;;;;;;7.28;100.00;100371.69;4176326;28;20233;-72
2022/09/22 00:57:46;;;;;;;9.97;5.43;;;;;;;7.24;100.00;100365.00;4192570;28;20387;-71
2022/09/22 01:00:14;;;;;;;10.73;5.20;;;;;;;7.31;100.00;100367.00;4204244;28;20237;-71
2022/09/22 01:02:41;;;;;;;11.30;6.03;;;;;;;7.29;100.00;100362.81;4191132;28;20448;-70
2022/09/22 01:05:08;;;;;;;10.73;5.57;;;;;;;7.32;100.00;100360.72;4197264;28;20362;-71
2022/09/22 01:07:34;;;;;;;12.60;5.47;;;;;;;7.23;100.00;100360.66;4188116;28;20236;-73
2022/09/22 01:10:01;;;;;;;9.13;5.80;;;;;;;7.21;100.00;100365.22;4196807;28;20231;-70
2022/09/22 01:12:29;;;;;;;11.87;5.60;;;;;;;7.21;100.00;100367.88;4185854;28;20297;-70
2022/09/22 01:15:19;;;;;;;11.77;5.30;;;;;;;7.26;100.00;100368.31;4202842;28;25718;-71
2022/09/22 01:18:11;;;;;;;13.03;5.70;;;;;;;7.27;100.00;100364.72;4175983;28;20225;-72
2022/09/22 01:21:19;;;;;;;10.57;4.80;;;;;;;7.31;100.00;100360.88;4188251;28;20240;-72
2022/09/22 01:24:12;;;;;;;13.00;5.60;;;;;;;7.30;100.00;100359.19;4198215;28;20253;-72
2022/09/22 01:27:05;;;;;;;11.90;5.40;;;;;;;7.26;100.00;100360.38;4170220;28;21827;-70
2022/09/22 01:29:44;;;;;;;10.70;5.50;;;;;;;7.25;100.00;100367.50;4189404;28;21586;-73
2022/09/22 01:32:21;;;;;;;9.67;5.17;;;;;;;7.21;100.00;100365.22;4188538;28;22790;-70
2022/09/22 01:34:55;;;;;;;8.37;5.33;;;;;;;7.22;100.00;100373.03;4193714;28;20246;-71
2022/09/22 01:37:33;;;;;;;13.27;5.80;;;;;;;7.16;100.00;100374.41;4184717;28;20865;-70
2022/09/22 01:40:05;;;;;;;10.70;5.60;;;;;;;7.13;100.00;100369.34;4187034;28;20240;-70
2022/09/22 01:42:35;;;;;;;11.53;5.60;;;;;;;7.17;100.00;100373.41;4176455;28;20338;-70
2022/09/22 01:45:09;;;;;;;11.60;5.77;;;;;;;7.11;100.00;100365.97;4186739;28;20661;-72
2022/09/22 01:47:46;;;;;;;11.83;5.57;;;;;;;7.17;100.00;100376.06;4176450;28;20705;-72
2022/09/22 01:50:17;;;;;;;11.97;5.80;;;;;;;7.18;100.00;100377.72;4186797;28;22093;-71
2022/09/22 01:52:44;;;;;;;9.73;5.63;;;;;;;7.18;100.00;100374.25;4191823;28;20328;-71
2022/09/22 01:55:29;;;;;;;9.87;5.60;;;;;;;7.18;100.00;100367.16;4188819;28;20304;-70
2022/09/22 01:58:03;;;;;;;12.07;6.70;;;;;;;7.15;100.00;100379.81;4200678;28;20233;-72
2022/09/22 02:00:31;;;;;;;11.83;6.50;;;;;;;7.09;100.00;100370.53;4189113;28;20236;-71
2022/09/22 02:03:04;;;;;;;11.73;6.53;;;;;;;7.12;100.00;100375.59;4192646;28;23500;-70
2022/09/22 02:05:44;;;;;;;14.80;6.50;;;;;;;7.13;100.00;100385.22;4172382;28;20842;-71
2022/09/22 02:08:18;;;;;;;12.60;6.30;;;;;;;7.22;100.00;100377.50;4202410;28;20242;-71
2022/09/22 02:10:46;;;;;;;17.17;6.07;;;;;;;7.24;100.00;100380.88;4187195;28;20241;-70
2022/09/22 02:13:14;;;;;;;13.23;7.20;;;;;;;7.29;100.00;100374.22;4185656;28;20304;-71
2022/09/22 02:15:59;;;;;;;11.10;7.00;;;;;;;7.30;100.00;100370.59;4197877;28;21715;-74
2022/09/22 02:18:30;;;;;;;12.97;7.17;;;;;;;7.36;100.00;100377.22;4206260;28;20332;-70
2022/09/22 02:20:56;;;;;;;14.83;6.93;;;;;;;7.38;100.00;100375.28;4175055;28;21305;-70
2022/09/22 02:23:23;;;;;;;13.83;8.00;;;;;;;7.31;100.00;100372.28;4185459;28;21054;-71
2022/09/22 02:25:50;;;;;;;21.27;7.83;;;;;;;7.34;100.00;100365.91;4184223;28;21153;-70
2022/09/22 02:28:18;;;;;;;15.97;8.80;;;;;;;7.36;100.00;100364.81;4175102;28;20233;-71
2022/09/22 02:30:46;;;;;;;17.10;8.20;;;;;;;7.40;100.00;100365.41;4190618;28;20238;-71
2022/09/22 02:33:35;;;;;;;17.47;8.80;;;;;;;7.46;100.00;100364.88;4185965;28;21376;-73
2022/09/22 02:36:28;;;;;;;17.33;9.07;;;;;;;7.48;100.00;100370.06;4190828;28;21827;-71
2022/09/22 02:38:58;;;;;;;17.73;9.23;;;;;;;7.51;100.00;100373.28;4186499;28;23558;-70
2022/09/22 02:41:44;;;;;;;17.87;9.33;;;;;;;7.44;100.00;100372.13;4186559;28;22771;-71
2022/09/22 02:44:20;;;;;;;19.60;10.27;;;;;;;7.50;100.00;100370.78;4190550;28;20264;-72
2022/09/22 02:46:51;;;;;;;19.37;11.13;;;;;;;7.54;100.00;100375.72;4184484;28;20237;-72
2022/09/22 02:49:18;;;;;;;21.50;11.20;;;;;;;7.64;100.00;100374.94;4186757;28;21649;-71
2022/09/22 02:51:47;;;;;;;21.53;11.07;;;;;;;7.56;100.00;100371.13;4186741;28;20237;-70
2022/09/22 02:54:14;;;;;;;22.13;11.50;;;;;;;7.59;100.00;100378.81;4190860;28;20318;-71
2022/09/22 02:56:41;;;;;;;19.17;11.47;;;;;;;7.59;100.00;100373.50;4184962;28;22688;-70
2022/09/22 02:59:10;;;;;;;23.80;12.00;;;;;;;7.63;100.00;100375.91;4181289;28;20240;-71
2022/09/22 03:01:37;;;;;;;21.60;11.37;;;;;;;7.64;100.00;100378.44;4183157;28;20229;-73
2022/09/22 03:04:04;;;;;;;21.87;11.70;;;;;;;7.59;100.00;100372.69;4186934;28;20295;-71
2022/09/22 03:06:31;;;;;;;24.33;12.43;;;;;;;7.63;100.00;100376.72;4183081;28;20241;-71
2022/09/22 03:08:57;;;;;;;26.30;12.50;;;;;;;7.68;100.00;100379.84;4185212;28;20590;-70
2022/09/22 03:11:25;;;;;;;25.33;13.27;;;;;;;7.67;100.00;100382.63;4172787;28;22281;-70
2022/09/22 03:13:52;;;;;;;22.23;13.07;;;;;;;7.65;100.00;100381.91;4185532;28;20614;-70
2022/09/22 03:16:19;;;;;;;28.00;13.20;;;;;;;7.67;100.00;100375.50;4190207;28;20244;-70
2022/09/22 03:18:46;;;;;;;21.47;12.20;;;;;;;7.69;100.00;100380.69;4186466;28;23573;-70
2022/09/22 03:21:12;;;;;;;24.23;12.53;;;;;;;7.68;100.00;100377.22;4173472;28;20238;-72
2022/09/22 03:23:39;;;;;;;19.80;12.30;;;;;;;7.72;100.00;100380.44;4188447;28;20808;-71
2022/09/22 03:26:05;;;;;;;27.07;12.70;;;;;;;7.78;100.00;100372.81;4191941;28;20243;-71
2022/09/22 03:28:32;;;;;;;22.80;12.50;;;;;;;7.67;100.00;100369.38;4180162;28;20246;-71
2022/09/22 03:30:58;;;;;;;23.87;13.07;;;;;;;7.65;100.00;100373.97;4187781;28;20233;-71
2022/09/22 03:33:25;;;;;;;28.10;13.60;;;;;;;7.71;100.00;100373.47;4185177;28;20501;-71
2022/09/22 03:35:51;;;;;;;25.73;13.67;;;;;;;7.68;100.00;100365.75;4191055;28;21243;-70
2022/09/22 03:38:18;;;;;;;27.97;13.60;;;;;;;7.75;100.00;100375.72;4200805;28;20233;-71
2022/09/22 03:40:51;;;;;;;25.17;14.27;;;;;;;7.76;100.00;100374.75;4188580;28;20245;-72
2022/09/22 03:43:18;;;;;;;27.67;13.53;;;;;;;7.81;100.00;100371.72;4192512;28;21736;-72
2022/09/22 03:45:45;;;;;;;24.87;13.20;;;;;;;7.82;100.00;100376.06;4186132;28;20281;-69
2022/09/22 03:48:12;;;;;;;21.57;13.23;;;;;;;7.85;100.00;100377.59;4188085;28;20236;-70
2022/09/22 03:50:38;;;;;;;24.83;13.47;;;;;;;7.83;100.00;100377.72;4187639;28;20259;-70
2022/09/22 03:53:05;;;;;;;26.07;12.87;;;;;;;7.83;100.00;100372.44;4192669;28;20238;-72
2022/09/22 03:55:32;;;;;;;25.27;12.30;;;;;;;7.84;100.00;100379.38;4191616;28;22444;-71
2022/09/22 03:57:58;;;;;;;20.77;12.93;;;;;;;7.88;100.00;100380.81;4191353;28;20232;-70
2022/09/22 04:00:27;;;;;;;23.27;13.83;;;;;;;7.78;100.00;100383.41;4198119;28;20242;-71
2022/09/22 04:02:53;;;;;;;27.17;13.30;;;;;;;7.82;100.00;100386.66;4188761;28;20237;-71
2022/09/22 04:05:20;;;;;;;24.90;12.80;;;;;;;7.87;100.00;100389.75;4196643;28;20965;-70
2022/09/22 04:07:46;;;;;;;21.43;11.63;;;;;;;7.95;100.00;100389.94;4204915;28;20818;-71
2022/09/22 04:10:13;;;;;;;21.50;11.60;;;;;;;7.98;100.00;100392.34;4191465;28;20359;-73
2022/09/22 04:12:40;;;;;;;21.70;12.63;;;;;;;7.98;100.00;100384.41;4190608;28;20240;-71
2022/09/22 04:15:07;;;;;;;22.50;12.90;;;;;;;8.00;100.00;100384.25;4190371;28;20229;-73
2022/09/22 04:17:35;;;;;;;22.37;13.23;;;;;;;7.95;100.00;100389.94;4176909;28;26118;-72
2022/09/22 04:20:04;;;;;;;26.97;13.43;;;;;;;7.93;100.00;100388.38;4186335;28;20787;-69
2022/09/22 04:22:31;;;;;;;23.07;13.07;;;;;;;7.98;100.00;100387.03;4188143;28;21813;-71
2022/09/22 04:24:57;;;;;;;22.17;11.47;;;;;;;8.04;100.00;100383.84;4185778;28;21618;-71
2022/09/22 04:27:24;;;;;;;20.27;12.83;;;;;;;8.04;100.00;100389.16;4187977;28;20245;-73
2022/09/22 04:29:50;;;;;;;21.00;13.03;;;;;;;7.97;100.00;100390.66;4190236;28;20231;-70
2022/09/22 04:32:17;;;;;;;21.10;12.57;;;;;;;8.01;100.00;100392.06;4194574;28;20305;-69
2022/09/22 04:34:44;;;;;;;18.77;12.50;;;;;;;8.05;100.00;100392.66;4192118;28;26038;-72
2022/09/22 04:37:11;;;;;;;21.33;12.13;;;;;;;8.09;100.00;100393.25;4193130;28;20245;-71
2022/09/22 04:39:37;;;;;;;21.00;13.53;;;;;;;8.09;100.00;100396.72;4191454;28;20480;-72
2022/09/22 04:42:04;;;;;;;21.20;13.70;;;;;;;8.12;100.00;100398.28;4189628;28;20811;-71
2022/09/22 04:44:30;;;;;;;31.50;16.97;;;;;;;8.07;100.00;100397.81;4184492;28;20275;-70
2022/09/22 04:47:00;;;;;;;23.97;13.17;;;;;;;8.18;100.00;100408.38;4188115;28;20609;-69
2022/09/22 04:49:27;;;;;;;21.80;12.10;;;;;;;8.20;100.00;100409.06;4191902;28;20237;-75
2022/09/22 04:51:54;;;;;;;22.53;12.23;;;;;;;8.19;100.00;100405.59;4195661;28;20324;-72
2022/09/22 04:54:20;;;;;;;22.63;12.50;;;;;;;8.19;100.00;100399.44;4200164;28;20229;-70
2022/09/22 04:56:47;;;;;;;19.73;11.77;;;;;;;8.14;100.00;100401.63;4189389;28;22316;-73
2022/09/22 04:59:13;;;;;;;21.63;11.57;;;;;;;8.17;100.00;100401.38;4198207;28;20459;-71
2022/09/22 05:01:40;;;;;;;16.47;10.67;;;;;;;8.22;100.00;100400.03;4194384;28;20313;-70
2022/09/22 05:04:07;;;;;;;19.73;11.80;;;;;;;8.09;100.00;100395.88;4193136;28;20251;-71
2022/09/22 05:06:35;;;;;;;20.37;11.73;;;;;;;8.19;100.00;100399.44;4202012;28;20287;-71
2022/09/22 05:09:03;;;;;;;17.53;11.13;;;;;;;8.18;100.00;100397.75;4198555;28;20240;-72
2022/09/22 05:11:30;;;;;;;22.90;12.10;;;;;;;8.27;100.00;100399.63;4203407;28;21740;-70
2022/09/22 05:13:57;;;;;;;21.97;11.43;;;;;;;8.34;100.00;100392.81;4193620;28;20601;-70
2022/09/22 05:16:24;;;;;;;21.50;11.63;;;;;;;8.28;100.00;100398.66;4202823;28;20500;-70
2022/09/22 05:18:50;;;;;;;29.60;12.00;;;;;;;8.25;100.00;100404.22;4201648;28;20247;-71
2022/09/22 05:21:20;;;;;;;23.43;12.30;;;;;;;8.41;100.00;100409.91;4190854;28;20241;-71
2022/09/22 05:23:47;;;;;;;22.20;12.20;;;;;;;8.39;100.00;100403.03;4180437;28;20817;-72
2022/09/22 05:26:13;;;;;;;27.30;14.03;;;;;;;8.33;100.00;100407.03;4206032;28;20989;-73
2022/09/22 05:28:40;;;;;;;24.53;13.00;;;;;;;8.39;100.00;100413.66;4193053;28;22219;-71
2022/09/22 05:31:06;;;;;;;21.53;12.17;;;;;;;8.30;100.00;100407.31;4196112;28;20245;-72
2022/09/22 05:33:33;;;;;;;20.80;10.33;;;;;;;8.39;100.00;100411.81;4202589;28;20307;-76
2022/09/22 05:35:59;;;;;;;26.00;12.07;;;;;;;8.39;100.00;100417.13;4189329;28;20237;-76
2022/09/22 05:38:26;;;;;;;53.20;15.30;;;;;;;8.45;100.00;100423.75;4206877;28;20645;-72
2022/09/22 05:40:52;;;;;;;24.47;11.90;;;;;;;8.47;100.00;100418.31;4188493;28;20717;-70
2022/09/22 05:43:19;;;;;;;21.63;11.30;;;;;;;8.42;100.00;100416.91;4194171;28;20608;-71
2022/09/22 05:45:45;;;;;;;18.00;10.47;;;;;;;8.43;100.00;100429.19;4191238;28;20237;-70
2022/09/22 05:48:12;;;;;;;26.77;11.23;;;;;;;8.41;100.00;100420.53;4198511;28;20244;-72
2022/09/22 05:50:38;;;;;;;17.83;10.80;;;;;;;8.42;100.00;100422.19;4191279;28;21193;-70
2022/09/22 05:53:07;;;;;;;18.57;10.20;;;;;;;8.50;100.00;100420.69;4192815;28;20705;-71
2022/09/22 05:55:34;;;;;;;16.30;10.47;;;;;;;8.57;100.00;100424.50;4184250;28;21200;-70
2022/09/22 05:58:01;;;;;;;19.27;11.00;;;;;;;8.65;100.00;100416.72;4187913;28;21351;-73
2022/09/22 06:00:29;;;;;;;17.60;11.10;;;;;;;8.67;100.00;100420.09;4170242;28;20284;-71
2022/09/22 06:02:56;;;;;;;20.90;10.60;;;;;;;8.60;100.00;100419.78;4199219;28;20244;-70
2022/09/22 06:05:23;;;;;;;18.03;10.83;;;;;;;8.69;100.00;100418.16;4206685;28;20320;-71
2022/09/22 06:08:02;;;;;;;20.13;10.33;;;;;;;8.77;100.00;100422.78;4186489;28;20267;-72
2022/09/22 06:10:31;;;;;;;17.23;11.07;;;;;;;8.79;100.00;100420.84;4186639;28;20258;-71
2022/09/22 06:13:05;;;;;;;16.70;10.27;;;;;;;8.84;100.00;100431.88;4201361;28;21441;-67
2022/09/22 06:15:33;;;;;;;16.57;9.53;;;;;;;8.80;100.00;100426.03;4193445;28;21565;-68
2022/09/22 06:18:00;;;;;;;21.57;9.97;;;;;;;8.83;100.00;100423.09;4182327;28;20285;-68
2022/09/22 06:20:26;;;;;;;15.23;9.80;;;;;;;8.80;100.00;100422.50;4204497;28;20250;-74
2022/09/22 06:22:53;;;;;;;15.83;10.07;;;;;;;8.87;100.00;100426.31;4202638;28;22838;-71
2022/09/22 06:25:20;;;;;;;13.20;9.37;;;;;;;8.96;100.00;100429.97;4178382;28;20233;-66
2022/09/22 06:27:47;;;;;;;16.97;9.83;;;;;;;9.03;100.00;100431.13;4186726;28;20374;-65
2022/09/22 06:30:14;;;;;;;12.80;9.37;;;;;;;9.07;100.00;100427.22;4209663;28;20244;-67
2022/09/22 06:32:42;;;;;;;14.80;8.70;;;;;;;9.12;100.00;100425.00;4198419;28;20234;-68
2022/09/22 06:35:09;;;;;;;15.87;8.90;;;;;;;9.17;100.00;100427.25;4194017;28;21080;-65
2022/09/22 06:37:37;;;;;;;16.70;9.10;;;;;;;9.24;100.00;100420.41;4202612;28;20234;-68
2022/09/22 06:40:07;;;;;;;14.33;8.77;;;;;;;9.27;100.00;100425.44;4194582;28;21148;-67
2022/09/22 06:42:34;;;;;;;13.83;8.43;;;;;;;9.29;100.00;100421.69;4189784;28;21072;-65
2022/09/22 06:45:02;;;;;;;15.53;9.57;;;;;;;9.46;100.00;100427.31;4193211;28;20313;-67
2022/09/22 06:47:31;;;;;;;13.80;8.60;;;;;;;9.54;100.00;100435.41;4191346;28;20416;-66
2022/09/22 06:50:01;;;;;;;14.63;8.63;;;;;;;9.61;100.00;100436.53;4203197;28;21139;-68
2022/09/22 06:52:28;;;;;;;13.33;8.83;;;;;;;9.67;100.00;100443.97;4196162;28;20649;-67
2022/09/22 06:55:00;;;;;;;15.67;8.03;;;;;;;9.82;100.00;100443.53;4196692;28;20240;-66
2022/09/22 06:57:31;;;;;;;11.10;7.50;;;;;;;9.78;100.00;100447.44;4183180;28;21472;-66
2022/09/22 06:59:59;;;;;;;15.90;7.87;;;;;;;9.72;100.00;100444.38;4191292;28;21750;-68
2022/09/22 07:02:28;;;;;;;16.67;7.53;;;;;;;9.83;100.00;100442.56;4189125;28;20263;-65
2022/09/22 07:04:58;;;;;;;13.90;9.40;;;;;;;9.90;100.00;100439.22;4193996;28;21462;-66
2022/09/22 07:07:26;;;;;;;15.17;10.27;;;;;;;10.01;100.00;100446.19;4221886;28;24158;-65
2022/09/22 07:09:54;;;;;;;19.70;11.43;;;;;;;10.12;100.00;100435.41;4203707;28;20903;-67
2022/09/22 07:12:21;;;;;;;20.27;11.80;;;;;;;10.27;100.00;100440.28;4198271;28;20311;-66
2022/09/22 07:14:48;;;;;;;33.70;10.77;;;;;;;10.37;100.00;100449.09;4192344;28;23149;-65
2022/09/22 07:17:19;;;;;;;27.10;9.63;;;;;;;10.40;100.00;100448.84;4193140;28;20252;-68
2022/09/22 07:19:46;;;;;;;11.43;7.30;;;;;;;10.42;100.00;100446.88;4201014;28;20398;-67
2022/09/22 07:22:17;;;;;;;12.13;8.20;;;;;;;10.59;100.00;100452.44;4203818;28;20248;-65
2022/09/22 07:24:44;;;;;;;11.93;6.83;;;;;;;10.84;100.00;100446.47;4202698;28;20418;-67
2022/09/22 07:27:13;;;;;;;10.50;6.30;;;;;;;10.93;100.00;100448.25;4205442;28;21458;-66
2022/09/22 07:29:40;;;;;;;11.67;5.40;;;;;;;10.97;100.00;100451.44;4194463;28;20288;-69
2022/09/22 07:32:07;;;;;;;14.13;5.87;;;;;;;11.14;100.00;100461.31;4200356;28;21800;-68
2022/09/22 07:34:34;;;;;;;7.37;5.27;;;;;;;11.59;100.00;100462.31;4202209;28;20550;-69
2022/09/22 07:37:01;;;;;;;9.97;6.10;;;;;;;11.34;99.09;100463.88;4222509;28;21816;-67
2022/09/22 07:39:28;;;;;;;9.13;5.57;;;;;;;11.27;100.00;100458.28;4206791;28;21813;-71
2022/09/22 07:41:55;;;;;;;8.33;5.60;;;;;;;11.53;99.28;100457.56;4194611;28;21041;-72
2022/09/22 07:47:10;;;;;;;9.23;5.13;;;;;;;11.58;98.86;100464.13;4202397;28;20234;-70
2022/09/22 07:49:37;;;;;;;10.80;6.40;;;;;;;11.57;98.18;100453.63;4378580;28;20240;-71
2022/09/22 07:52:04;;;;;;;7.67;5.67;;;;;;;11.75;98.05;100456.28;4441557;28;20227;-69
2022/09/22 07:54:38;;;;;;;9.93;6.67;;;;;;;11.80;96.78;100460.19;4285555;28;20461;-71
2022/09/22 07:57:09;;;;;;;22.07;6.80;;;;;;;12.13;96.76;100463.16;4234884;28;23296;-69
2022/09/22 07:59:37;;;;;;;21.00;11.70;;;;;;;12.61;93.01;100464.50;4216832;28;21998;-68
2022/09/22 08:02:04;;;;;;;21.57;12.97;;;;;;;12.73;92.03;100459.72;4186942;28;20250;-69
2022/09/22 08:04:32;;;;;;;11.33;7.83;;;;;;;12.83;91.56;100464.94;4188422;28;20243;-68
2022/09/22 08:06:59;;;;;;;10.27;5.70;;;;;;;12.62;90.89;100466.19;4218950;28;20685;-56
2022/09/22 08:09:27;;;;;;;7.57;5.70;;;;;;;12.32;93.55;100458.66;4206749;28;20232;-42
2022/09/22 08:11:53;;;;;;;8.57;5.13;;;;;;;12.83;91.94;100464.94;4228732;28;20355;-71
2022/09/22 08:14:22;;;;;;;10.50;6.63;;;;;;;13.44;88.79;100466.59;4244871;28;20264;-72
2022/09/22 08:16:50;;;;;;;12.13;6.80;;;;;;;13.35;86.63;100467.56;4210512;28;20232;-68
2022/09/22 08:19:17;;;;;;;7.97;5.47;;;;;;;13.17;87.72;100461.44;4197422;28;20315;-71
2022/09/22 08:21:45;;;;;;;9.43;5.80;;;;;;;13.23;87.58;100463.47;4194834;28;20249;-72
2022/09/22 08:24:20;;;;;;;6.77;5.23;;;;;;;13.57;88.33;100465.28;4211042;28;20233;-75
2022/09/22 08:26:49;;;;;;;8.77;4.93;;;;;;;15.60;77.24;100486.56;4199661;28;22413;-75
2022/09/22 08:29:16;;;;;;;8.07;4.63;;;;;;;16.40;70.30;100491.50;4211687;28;20466;-72
2022/09/22 08:31:44;;;;;;;5.67;3.90;;;;;;;16.07;70.80;100492.81;4221129;28;20346;-72
2022/09/22 08:34:12;;;;;;;6.30;3.93;;;;;;;15.88;70.17;100489.59;4214551;28;20233;-71
2022/09/22 08:36:45;;;;;;;6.50;3.70;;;;;;;15.87;69.71;100487.91;4220174;28;20232;-72
2022/09/22 08:39:12;;;;;;;6.03;3.87;;;;;;;15.72;70.92;100478.97;4223570;28;20238;-76
2022/09/22 08:41:55;;;;;;;6.20;3.90;;;;;;;15.04;74.31;100473.22;4241087;28;21512;-68
2022/09/22 08:44:28;;;;;;;5.53;3.47;;;;;;;14.73;75.41;100468.63;4197677;28;20236;-67
2022/09/22 08:46:57;;;;;;;7.57;3.73;;;;;;;15.11;75.10;100468.84;4201414;28;20433;-70
2022/09/22 08:52:39;;;;;;;6.20;3.60;;;;;;;15.75;69.37;100484.78;4200957;28;20241;-76
2022/09/22 08:55:16;;;;;;;5.80;3.30;;;;;;;16.32;67.99;100485.38;4223697;28;22587;-76
2022/09/22 08:58:01;;;;;;;5.33;3.07;;;;;;;16.66;66.17;100484.91;4229159;28;20241;-74
2022/09/22 09:00:32;;;;;;;5.93;3.43;;;;;;;16.51;67.40;100489.44;4237282;28;20231;-68
2022/09/22 09:03:43;;;;;;;6.20;2.87;;;;;;;16.94;63.80;100485.13;4207461;28;21232;-70
2022/09/22 09:06:52;;;;;;;4.70;2.83;;;;;;;16.95;63.67;100480.56;4196227;28;20240;-76
2022/09/22 09:09:50;;;;;;;4.20;2.57;;;;;;;17.05;61.38;100484.66;4224927;28;20244;-72
2022/09/22 09:12:27;;;;;;;8.00;3.00;;;;;;;16.18;64.84;100477.13;4220632;28;20239;-74
2022/09/22 09:15:17;;;;;;;7.00;2.37;;;;;;;16.19;62.02;100477.94;4215269;28;20237;-73
2022/09/22 09:17:46;;;;;;;4.10;2.33;;;;;;;16.33;61.33;100471.78;4219182;28;21474;-74
2022/09/22 09:20:12;;;;;;;4.50;2.43;;;;;;;16.39;61.23;100473.75;4214240;28;21226;-69
2022/09/22 09:22:43;;;;;;;2.90;2.30;;;;;;;16.07;61.23;100465.97;4242090;28;20237;-71
2022/09/22 09:25:29;;;;;;;5.90;2.40;;;;;;;16.63;60.29;100466.47;4226974;28;20325;-73
2022/09/22 09:27:59;;;;;;;3.37;2.23;;;;;;;16.79;57.23;100460.94;4208519;28;20244;-71
2022/09/22 09:30:31;;;;;;;3.10;1.90;;;;;;;16.91;56.08;100469.38;4245365;28;20293;-75
2022/09/22 09:33:04;;;;;;;2.77;1.50;;;;;;;17.36;56.14;100472.03;4220544;28;20233;-71
2022/09/22 09:35:43;;;;;;;3.50;2.00;;;;;;;16.84;54.97;100474.66;4202525;28;20404;-73
2022/09/22 09:38:13;;;;;;;7.37;2.43;;;;;;;16.53;56.53;100465.88;4233953;28;20400;-73
2022/09/22 09:40:40;;;;;;;3.17;2.07;;;;;;;16.18;61.71;100452.13;4228822;28;20522;-76
2022/09/22 09:43:07;;;;;;;4.63;2.27;;;;;;;16.41;62.95;100450.22;4189260;28;20236;-77
2022/09/22 09:45:49;;;;;;;4.23;2.60;;;;;;;16.56;59.00;100449.41;4187964;28;21266;-78
2022/09/22 09:48:20;;;;;;;5.00;2.00;;;;;;;16.71;57.15;100452.94;4201595;28;21918;-72
2022/09/22 09:50:46;;;;;;;3.83;2.33;;;;;;;16.41;59.51;100444.00;4205259;28;20746;-75
2022/09/22 09:53:32;;;;;;;2.13;1.60;;;;;;;16.51;57.87;100443.75;4199093;28;22396;-73
2022/09/22 09:55:59;;;;;;;3.30;2.13;;;;;;;15.81;58.99;100456.44;4202785;28;20873;-77
2022/09/22 10:01:12;;;;;;;2.70;1.70;;;;;;;15.73;59.93;100449.28;4227248;28;20469;-75
2022/09/22 10:03:46;;;;;;;2.47;1.83;;;;;;;15.92;59.20;100441.75;4209491;28;21942;-77
2022/09/22 10:06:14;;;;;;;2.33;1.87;;;;;;;16.21;58.04;100446.38;4211637;28;20241;-73
2022/09/22 10:08:50;;;;;;;3.60;2.30;;;;;;;16.08;57.72;100443.47;4204199;28;20280;-74
2022/09/22 10:11:28;;;;;;;4.37;1.87;;;;;;;15.99;60.53;100448.91;4214678;28;21831;-74
2022/09/22 10:13:56;;;;;;;4.00;1.90;;;;;;;15.87;56.70;100453.00;4189856;28;20237;-74
2022/09/22 10:16:24;;;;;;;2.63;1.60;;;;;;;15.56;57.22;100443.13;4222442;28;20243;-75
2022/09/22 10:19:21;;;;;;;3.47;1.97;;;;;;;15.42;59.80;100443.91;4198246;28;20558;-75
2022/09/22 10:21:47;;;;;;;2.83;1.20;;;;;;;15.16;58.88;100433.47;4205584;28;20319;-74
2022/09/22 10:24:27;;;;;;;2.37;1.63;;;;;;;15.36;59.55;100441.94;4208695;28;20244;-73
2022/09/22 10:26:54;;;;;;;2.60;1.83;;;;;;;15.44;59.13;100441.88;4194700;28;20239;-74
2022/09/22 10:29:21;;;;;;;3.70;2.00;;;;;;;14.87;62.88;100436.81;4194377;28;20241;-74
2022/09/22 10:32:15;;;;;;;2.93;1.87;;;;;;;14.78;64.69;100442.16;4216809;28;20233;-78
2022/09/22 10:34:50;;;;;;;2.73;2.17;;;;;;;14.69;67.38;100437.84;4198470;28;22073;-76
2022/09/22 10:37:25;;;;;;;3.60;2.37;;;;;;;14.66;69.46;100435.50;4191518;28;20234;-77
2022/09/22 10:39:55;;;;;;;2.83;1.90;;;;;;;14.49;69.37;100433.84;4189214;28;21149;-75
2022/09/22 10:42:33;;;;;;;4.43;2.33;;;;;;;14.34;69.05;100431.03;4203285;28;20240;-74
2022/09/22 10:45:06;;;;;;;3.17;1.90;;;;;;;14.48;69.75;100427.66;4186657;28;20594;-73
2022/09/22 10:47:54;;;;;;;4.43;2.00;;;;;;;14.74;69.50;100432.78;4182135;28;20283;-76
2022/09/22 10:50:28;;;;;;;2.50;1.73;;;;;;;14.87;67.78;100436.81;4229958;28;22401;-75
2022/09/22 10:53:12;;;;;;;2.73;1.77;;;;;;;14.98;66.16;100431.91;4195496;28;21669;-75
2022/09/22 10:55:52;;;;;;;2.57;1.60;;;;;;;15.18;64.55;100424.25;4195511;28;20403;-74
2022/09/22 10:58:31;;;;;;;2.70;1.97;;;;;;;15.15;64.16;100427.28;4193140;28;20788;-73
2022/09/22 11:01:12;;;;;;;2.10;1.40;;;;;;;14.84;64.70;100421.06;4220300;28;20237;-73
2022/09/22 11:03:51;;;;;;;2.43;1.50;;;;;;;14.56;64.07;100430.34;4213691;28;21684;-72
2022/09/22 11:12:40;;;;;;;2.57;1.47;;;;;;;14.14;67.84;100418.00;4209262;28;20531;-73
2022/09/22 11:15:17;;;;;;;2.37;1.40;;;;;;;14.11;67.77;100425.53;4191059;28;20329;-73
2022/09/22 11:18:21;;;;;;;2.13;1.30;;;;;;;14.17;67.15;100416.84;4200312;28;21634;-75
2022/09/22 11:20:57;;;;;;;2.07;1.30;;;;;;;14.31;66.34;100426.03;4196032;28;20359;-72
2022/09/22 11:23:58;;;;;;;4.03;1.40;;;;;;;14.14;64.16;100420.69;4187602;28;20724;-74
2022/09/22 11:26:49;;;;;;;1.77;1.20;;;;;;;13.96;63.37;100419.19;4196477;28;20305;-77
2022/09/22 11:30:02;;;;;;;2.67;1.17;;;;;;;13.83;63.87;100423.19;4200055;28;20423;-75
2022/09/22 11:32:56;;;;;;;3.50;1.70;;;;;;;13.51;66.29;100414.13;4182885;28;21675;-71
2022/09/22 11:35:35;;;;;;;2.87;1.70;;;;;;;13.15;69.00;100408.16;4202764;28;20236;-73
2022/09/22 11:38:16;;;;;;;4.70;1.70;;;;;;;13.15;70.09;100410.00;4193441;28;20370;-71
2022/09/22 11:41:03;;;;;;;2.27;1.50;;;;;;;13.01;70.52;100417.63;4200304;28;21129;-72
2022/09/22 11:43:59;;;;;;;2.10;1.40;;;;;;;12.78;71.52;100411.19;4197420;28;20249;-74
2022/09/22 11:46:53;;;;;;;2.77;1.80;;;;;;;12.80;71.93;100410.03;4200197;28;20237;-76
2022/09/22 11:49:35;;;;;;;2.10;1.50;;;;;;;12.95;70.83;100412.94;4190923;28;20226;-70
2022/09/22 11:52:21;;;;;;;3.87;1.67;;;;;;;12.99;71.60;100408.94;4193039;28;20233;-75